Time,TemperatureF,DewpointF,PressureIn,WindDirection,WindDirectionDegrees,WindSpeedMPH,WindSpeedGustMPH,Humidity,HourlyPrecipIn,Conditions,Clouds,dailyrainin,SoftwareType,DateUTC
2013-07-11 00:01:00,75.0,72.5,29.78,SSE,157,5.1,5.1,91,-99.99,,,-99.99,tws,2013-07-11 04:01:00,
2013-07-11 00:02:00,74.9,72.3,29.78,South,180,5.7,5.7,91,-99.99,,,-99.99,tws,2013-07-11 04:02:00,
2013-07-11 00:03:00,74.8,72.3,29.78,South,180,6.4,6.4,91,-99.99,,,-99.99,tws,2013-07-11 04:03:00,
2013-07-11 00:04:00,74.8,72.4,29.78,South,180,5.9,5.9,92,-99.99,,,-99.99,tws,2013-07-11 04:04:00,
2013-07-11 00:08:00,74.9,72.4,29.78,South,180,3.3,3.3,91,-99.99,,,-99.99,tws,2013-07-11 04:08:00,
2013-07-11 00:13:00,74.7,72.4,29.77,South,180,7.0,7.0,92,-99.99,,,-99.99,tws,2013-07-11 04:13:00,
2013-07-11 00:18:00,74.3,72.2,29.77,SSE,157,2.1,2.1,92,-99.99,,,-99.99,tws,2013-07-11 04:18:00,
2013-07-11 00:23:00,74.3,72.3,29.77,South,180,3.6,3.6,93,-99.99,,,-99.99,tws,2013-07-11 04:23:00,
2013-07-11 00:28:00,74.1,71.8,29.77,South,180,2.7,2.7,92,-99.99,,,-99.99,tws,2013-07-11 04:28:00,
2013-07-11 00:33:00,74.1,71.9,29.77,SSE,157,5.1,5.1,92,-99.99,,,-99.99,tws,2013-07-11 04:33:00,
2013-07-11 00:38:00,74.2,72.3,29.77,SE,135,3.2,3.2,93,-99.99,,,-99.99,tws,2013-07-11 04:38:00,
2013-07-11 00:43:00,73.7,71.8,29.77,SE,135,6.0,6.0,93,-99.99,,,-99.99,tws,2013-07-11 04:43:00,
2013-07-11 00:48:00,73.9,72.0,29.77,SE,135,5.6,5.6,93,-99.99,,,-99.99,tws,2013-07-11 04:48:00,
2013-07-11 00:53:00,73.5,71.7,29.76,SSE,157,6.6,6.6,93,-99.99,,,-99.99,tws,2013-07-11 04:53:00,
2013-07-11 00:58:00,73.4,71.7,29.76,SSE,157,5.4,5.4,94,-99.99,,,-99.99,tws,2013-07-11 04:58:00,
2013-07-11 01:03:00,73.3,71.6,29.76,SSE,157,7.6,7.6,94,-99.99,,,-99.99,tws,2013-07-11 05:03:00,
2013-07-11 01:08:00,72.9,71.3,29.76,SSE,157,9.1,9.1,94,-99.99,,,-99.99,tws,2013-07-11 05:08:00,
2013-07-11 01:13:00,72.9,71.3,29.75,South,180,6.5,6.5,94,-99.99,,,-99.99,tws,2013-07-11 05:13:00,
2013-07-11 01:18:00,72.9,71.3,29.75,WSW,247,7.8,7.8,94,-99.99,,,-99.99,tws,2013-07-11 05:18:00,
2013-07-11 01:23:00,73.4,71.7,29.75,South,180,0.8,0.8,94,-99.99,,,-99.99,tws,2013-07-11 05:23:00,
2013-07-11 01:28:00,73.5,71.6,29.75,WSW,247,1.3,1.3,93,-99.99,,,-99.99,tws,2013-07-11 05:28:00,
2013-07-11 01:33:00,73.0,71.4,29.75,SSW,202,9.0,9.0,94,-99.99,,,-99.99,tws,2013-07-11 05:33:00,
2013-07-11 01:38:00,72.6,71.1,29.75,SSW,202,6.7,6.7,94,-99.99,,,-99.99,tws,2013-07-11 05:38:00,
2013-07-11 01:43:00,73.0,71.4,29.75,SSE,157,7.5,7.5,94,-99.99,,,-99.99,tws,2013-07-11 05:43:00,
2013-07-11 01:48:00,72.9,71.3,29.75,ESE,112,6.6,6.6,94,-99.99,,,-99.99,tws,2013-07-11 05:48:00,
2013-07-11 01:53:00,72.6,71.4,29.75,ESE,112,8.7,8.7,95,-99.99,,,-99.99,tws,2013-07-11 05:53:00,
2013-07-11 01:58:00,72.6,71.3,29.75,ESE,112,8.0,8.0,95,-99.99,,,-99.99,tws,2013-07-11 05:58:00,
2013-07-11 02:03:00,72.9,71.3,29.75,SE,135,9.7,9.7,94,-99.99,,,-99.99,tws,2013-07-11 06:03:00,
2013-07-11 02:08:00,73.1,71.4,29.75,SSE,157,9.4,9.4,94,-99.99,,,-99.99,tws,2013-07-11 06:08:00,
2013-07-11 02:13:00,73.1,71.3,29.75,SSE,157,7.7,7.7,94,-99.99,,,-99.99,tws,2013-07-11 06:13:00,
2013-07-11 02:18:00,73.1,71.3,29.75,South,180,11.7,11.7,94,-99.99,,,-99.99,tws,2013-07-11 06:18:00,
2013-07-11 02:23:00,72.9,71.3,29.75,SW,225,2.8,2.8,94,-99.99,,,-99.99,tws,2013-07-11 06:23:00,
2013-07-11 02:28:00,73.3,71.6,29.75,ESE,112,2.7,2.7,94,-99.99,,,-99.99,tws,2013-07-11 06:28:00,
2013-07-11 02:33:00,73.7,71.7,29.75,SSW,202,2.5,2.5,93,-99.99,,,-99.99,tws,2013-07-11 06:33:00,
2013-07-11 02:38:00,73.1,71.3,29.76,WSW,247,2.4,2.4,94,-99.99,,,-99.99,tws,2013-07-11 06:38:00,
2013-07-11 02:43:00,73.7,71.8,29.76,SSW,202,0.0,0.0,94,-99.99,,,-99.99,tws,2013-07-11 06:43:00,
2013-07-11 02:48:00,73.7,72.0,29.76,ESE,112,0.0,0.0,94,-99.99,,,-99.99,tws,2013-07-11 06:48:00,
2013-07-11 02:53:00,73.4,71.6,29.76,SSE,157,0.0,0.0,93,-99.99,,,-99.99,tws,2013-07-11 06:53:00,
2013-07-11 02:58:00,73.5,71.9,29.77,SE,135,0.0,0.0,94,-99.99,,,-99.99,tws,2013-07-11 06:58:00,
2013-07-11 03:03:00,73.2,70.9,29.77,SSE,157,2.3,2.3,92,-99.99,,,-99.99,tws,2013-07-11 07:03:00,
2013-07-11 03:08:00,73.2,71.3,29.77,SSE,157,4.4,4.4,93,-99.99,,,-99.99,tws,2013-07-11 07:08:00,
2013-07-11 03:13:00,73.0,71.2,29.77,South,180,1.8,1.8,94,-99.99,,,-99.99,tws,2013-07-11 07:13:00,
2013-07-11 03:18:00,73.0,71.2,29.77,South,180,5.4,5.4,94,-99.99,,,-99.99,tws,2013-07-11 07:18:00,
2013-07-11 03:23:00,72.8,70.9,29.77,SSW,202,5.7,5.7,93,-99.99,,,-99.99,tws,2013-07-11 07:23:00,
2013-07-11 03:29:00,73.0,71.3,29.78,WSW,247,3.5,3.5,94,-99.99,,,-99.99,tws,2013-07-11 07:29:00,
2013-07-11 03:34:00,72.6,71.1,29.78,SSW,202,5.4,5.4,94,-99.99,,,-99.99,tws,2013-07-11 07:34:00,
2013-07-11 03:39:00,73.0,71.2,29.78,South,180,6.5,6.5,94,-99.99,,,-99.99,tws,2013-07-11 07:39:00,
2013-07-11 03:44:00,72.9,71.1,29.78,SSW,202,1.5,1.5,94,-99.99,,,-99.99,tws,2013-07-11 07:44:00,
2013-07-11 03:49:00,72.8,71.1,29.79,South,180,9.1,9.1,94,-99.99,,,-99.99,tws,2013-07-11 07:49:00,
2013-07-11 03:54:00,73.0,71.2,29.79,SSE,157,4.4,4.4,94,-99.99,,,-99.99,tws,2013-07-11 07:54:00,
2013-07-11 03:59:00,72.9,71.1,29.78,South,180,3.5,3.5,94,-99.99,,,-99.99,tws,2013-07-11 07:59:00,
2013-07-11 04:04:00,73.3,71.6,29.79,SE,135,0.0,0.0,94,-99.99,,,-99.99,tws,2013-07-11 08:04:00,
2013-07-11 04:10:00,73.2,71.6,29.79,ESE,112,0.0,0.0,94,-99.99,,,-99.99,tws,2013-07-11 08:10:00,
2013-07-11 04:15:00,73.1,0.0,29.79,SE,135,0.0,0.0,-999,-99.99,,,-99.99,tws,2013-07-11 08:15:00,
2013-07-11 04:20:00,73.3,71.5,29.79,SSE,157,0.0,0.0,93,-99.99,,,-99.99,tws,2013-07-11 08:20:00,
2013-07-11 04:25:00,73.2,71.4,29.79,SE,135,4.6,4.6,93,-99.99,,,-99.99,tws,2013-07-11 08:25:00,
2013-07-11 04:30:00,72.9,71.5,29.79,SE,135,0.0,0.0,95,-99.99,,,-99.99,tws,2013-07-11 08:30:00,
2013-07-11 04:35:00,73.1,71.6,29.79,SSE,157,0.0,0.0,94,-99.99,,,-99.99,tws,2013-07-11 08:35:00,
2013-07-11 04:40:00,72.9,71.2,29.79,SSE,157,0.0,0.0,94,-99.99,,,-99.99,tws,2013-07-11 08:40:00,
2013-07-11 04:46:00,73.3,71.3,29.78,SSE,157,0.0,0.0,93,-99.99,,,-99.99,tws,2013-07-11 08:46:00,
2013-07-11 04:51:00,72.3,71.1,29.79,South,180,0.0,0.0,95,-99.99,,,-99.99,tws,2013-07-11 08:51:00,
2013-07-11 04:56:00,71.9,70.9,29.79,South,180,0.0,0.0,96,-99.99,,,-99.99,tws,2013-07-11 08:56:00,
2013-07-11 05:02:00,71.2,70.7,29.80,NNW,337,0.0,0.0,98,-99.99,,,-99.99,tws,2013-07-11 09:02:00,
2013-07-11 05:07:00,71.5,71.1,29.80,NNE,22,0.0,0.0,98,-99.99,,,-99.99,tws,2013-07-11 09:07:00,
2013-07-11 05:12:00,72.1,71.3,29.80,NNE,22,0.0,0.0,97,-99.99,,,-99.99,tws,2013-07-11 09:12:00,
2013-07-11 05:17:00,71.5,71.0,29.80,NNE,22,0.0,0.0,98,-99.99,,,-99.99,tws,2013-07-11 09:17:00,
2013-07-11 05:22:00,72.5,71.6,29.80,NNE,22,0.0,0.0,96,-99.99,,,-99.99,tws,2013-07-11 09:22:00,
2013-07-11 05:27:00,71.6,71.1,29.80,SSE,157,0.0,0.0,98,-99.99,,,-99.99,tws,2013-07-11 09:27:00,
2013-07-11 05:32:00,72.1,71.4,29.80,ESE,112,0.0,0.0,97,-99.99,,,-99.99,tws,2013-07-11 09:32:00,
2013-07-11 05:37:00,71.5,70.6,29.79,SE,135,6.6,6.6,96,-99.99,,,-99.99,tws,2013-07-11 09:37:00,
2013-07-11 05:42:00,71.4,70.9,29.80,SE,135,0.0,0.0,98,-99.99,,,-99.99,tws,2013-07-11 09:42:00,
2013-07-11 05:47:00,71.2,70.8,29.80,South,180,0.0,0.0,98,-99.99,,,-99.99,tws,2013-07-11 09:47:00,
2013-07-11 05:52:00,70.8,70.6,29.80,NNE,22,0.0,0.0,99,-99.99,,,-99.99,tws,2013-07-11 09:52:00,
2013-07-11 05:58:00,70.6,70.5,29.80,North,360,0.0,0.0,99,-99.99,,,-99.99,tws,2013-07-11 09:58:00,
2013-07-11 06:03:00,71.1,71.0,29.81,North,360,0.0,0.0,99,-99.99,,,-99.99,tws,2013-07-11 10:03:00,
2013-07-11 06:08:00,71.0,70.9,29.81,NW,315,0.0,0.0,99,-99.99,,,-99.99,tws,2013-07-11 10:08:00,
2013-07-11 06:13:00,70.8,70.8,29.82,North,360,0.0,0.0,100,-99.99,,,-99.99,tws,2013-07-11 10:13:00,
2013-07-11 06:18:00,71.9,71.6,29.82,NNE,22,0.0,0.0,99,-99.99,,,-99.99,tws,2013-07-11 10:18:00,
2013-07-11 06:23:00,72.0,71.6,29.82,NE,45,0.0,0.0,98,-99.99,,,-99.99,tws,2013-07-11 10:23:00,
2013-07-11 06:28:00,71.7,71.3,29.81,NE,45,0.1,0.1,98,-99.99,,,-99.99,tws,2013-07-11 10:28:00,
2013-07-11 06:33:00,71.3,71.1,29.82,ENE,67,1.5,1.5,99,-99.99,,,-99.99,tws,2013-07-11 10:33:00,
2013-07-11 06:38:00,71.5,71.2,29.82,ENE,67,1.3,1.3,99,-99.99,,,-99.99,tws,2013-07-11 10:38:00,
2013-07-11 06:43:00,71.9,71.3,29.82,NNE,22,0.0,0.0,98,-99.99,,,-99.99,tws,2013-07-11 10:43:00,
2013-07-11 06:48:00,72.3,71.7,29.83,NNE,22,0.0,0.0,97,-99.99,,,-99.99,tws,2013-07-11 10:48:00,
2013-07-11 06:53:00,72.5,71.9,29.83,East,90,0.0,0.0,97,-99.99,,,-99.99,tws,2013-07-11 10:53:00,
2013-07-11 06:58:00,72.2,71.7,29.83,ENE,67,0.0,0.0,98,-99.99,,,-99.99,tws,2013-07-11 10:58:00,
2013-07-11 07:03:00,72.2,71.8,29.83,East,90,0.0,0.0,98,-99.99,,,-99.99,tws,2013-07-11 11:03:00,
2013-07-11 07:09:00,72.6,71.7,29.83,ESE,112,0.0,0.0,96,-99.99,,,-99.99,tws,2013-07-11 11:09:00,
2013-07-11 07:14:00,72.2,71.7,29.83,ENE,67,0.0,0.0,98,-99.99,,,-99.99,tws,2013-07-11 11:14:00,
2013-07-11 07:19:00,73.1,72.4,29.84,North,360,0.0,0.0,97,-99.99,,,-99.99,tws,2013-07-11 11:19:00,
2013-07-11 07:24:00,71.7,71.2,29.84,NW,315,0.0,0.0,98,-99.99,,,-99.99,tws,2013-07-11 11:24:00,
2013-07-11 07:29:00,72.9,72.2,29.84,NE,45,0.0,0.0,97,-99.99,,,-99.99,tws,2013-07-11 11:29:00,
2013-07-11 07:34:00,73.2,71.9,29.84,NE,45,0.0,0.0,95,-99.99,,,-99.99,tws,2013-07-11 11:34:00,
2013-07-11 07:39:00,73.0,72.2,29.84,NE,45,0.0,0.0,97,-99.99,,,-99.99,tws,2013-07-11 11:39:00,
2013-07-11 07:44:00,73.4,72.2,29.84,NE,45,0.0,0.0,95,-99.99,,,-99.99,tws,2013-07-11 11:44:00,
2013-07-11 07:49:00,73.5,72.0,29.84,ESE,112,0.0,0.0,94,-99.99,,,-99.99,tws,2013-07-11 11:49:00,
2013-07-11 07:54:00,73.7,72.1,29.84,East,90,0.0,0.0,94,-99.99,,,-99.99,tws,2013-07-11 11:54:00,
2013-07-11 07:59:00,73.5,72.5,29.84,ENE,67,0.0,0.0,96,-99.99,,,-99.99,tws,2013-07-11 11:59:00,
2013-07-11 08:04:00,74.1,72.4,29.84,ESE,112,0.0,0.0,94,-99.99,,,-99.99,tws,2013-07-11 12:04:00,
2013-07-11 08:09:00,74.4,72.5,29.84,SSE,157,0.0,0.0,93,-99.99,,,-99.99,tws,2013-07-11 12:09:00,
2013-07-11 08:14:00,73.5,72.0,29.84,ESE,112,0.0,0.0,95,-99.99,,,-99.99,tws,2013-07-11 12:14:00,
2013-07-11 08:19:00,73.2,71.3,29.84,East,90,2.8,2.8,93,-99.99,,,-99.99,tws,2013-07-11 12:19:00,
2013-07-11 08:24:00,73.1,71.1,29.84,ENE,67,4.4,4.4,93,-99.99,,,-99.99,tws,2013-07-11 12:24:00,
2013-07-11 08:29:00,74.4,71.6,29.84,East,90,0.5,0.5,90,-99.99,,,-99.99,tws,2013-07-11 12:29:00,
2013-07-11 08:34:00,75.0,71.0,29.84,ESE,112,0.5,0.5,87,-99.99,,,-99.99,tws,2013-07-11 12:34:00,
2013-07-11 08:39:00,75.5,71.7,29.84,NNE,22,0.0,0.0,88,-99.99,,,-99.99,tws,2013-07-11 12:39:00,
2013-07-11 08:44:00,75.5,71.6,29.84,East,90,0.0,0.0,87,-99.99,,,-99.99,tws,2013-07-11 12:44:00,
2013-07-11 08:49:00,75.8,71.8,29.84,North,0,0.0,0.0,87,-99.99,,,-99.99,tws,2013-07-11 12:49:00,
2013-07-11 08:54:00,77.5,72.4,29.84,ENE,67,0.0,0.0,84,-99.99,,,-99.99,tws,2013-07-11 12:54:00,
2013-07-11 08:59:00,77.5,71.7,29.84,SE,135,0.3,0.3,82,-99.99,,,-99.99,tws,2013-07-11 12:59:00,
2013-07-11 09:05:00,76.9,71.3,29.84,ESE,112,0.0,0.0,82,-99.99,,,-99.99,tws,2013-07-11 13:05:00,
2013-07-11 09:11:00,78.0,72.6,29.84,WSW,247,0.0,0.0,83,-99.99,,,-99.99,tws,2013-07-11 13:11:00,
2013-07-11 09:16:00,77.9,71.5,29.84,ESE,112,0.0,0.0,80,-99.99,,,-99.99,tws,2013-07-11 13:16:00,
2013-07-11 09:21:00,78.3,71.9,29.85,East,90,0.0,0.0,80,-99.99,,,-99.99,tws,2013-07-11 13:21:00,
2013-07-11 09:26:00,75.9,70.1,29.85,West,270,3.7,3.7,81,-99.99,,,-99.99,tws,2013-07-11 13:26:00,
2013-07-11 09:31:00,76.4,69.9,29.84,NNE,22,0.1,0.1,80,-99.99,,,-99.99,tws,2013-07-11 13:31:00,
2013-07-11 09:37:00,76.1,70.3,29.84,NW,315,3.8,3.8,81,-99.99,,,-99.99,tws,2013-07-11 13:37:00,
2013-07-11 09:42:00,75.8,69.3,29.85,NNW,337,3.7,3.7,80,-99.99,,,-99.99,tws,2013-07-11 13:42:00,
2013-07-11 09:47:00,77.4,70.8,29.85,NNW,337,0.5,0.5,79,-99.99,,,-99.99,tws,2013-07-11 13:47:00,
2013-07-11 09:52:00,77.4,70.0,29.85,NE,45,1.3,1.3,77,-99.99,,,-99.99,tws,2013-07-11 13:52:00,
2013-07-11 09:57:00,76.7,70.0,29.85,NNE,22,3.2,3.2,79,-99.99,,,-99.99,tws,2013-07-11 13:57:00,
2013-07-11 10:04:00,77.7,70.9,29.86,North,0,0.5,0.5,79,-99.99,,,-99.99,tws,2013-07-11 14:04:00,
2013-07-11 10:09:00,78.9,71.7,29.86,WNW,292,2.9,2.9,78,-99.99,,,-99.99,tws,2013-07-11 14:09:00,
2013-07-11 10:14:00,80.1,71.5,29.85,NNE,22,0.7,0.7,74,-99.99,,,-99.99,tws,2013-07-11 14:14:00,
2013-07-11 10:19:00,78.0,70.4,29.86,NNE,22,0.1,0.1,77,-99.99,,,-99.99,tws,2013-07-11 14:19:00,
2013-07-11 10:25:00,80.2,71.4,29.86,NE,45,0.0,0.0,74,-99.99,,,-99.99,tws,2013-07-11 14:25:00,
2013-07-11 10:30:00,81.2,72.3,29.86,SSE,157,0.0,0.0,74,-99.99,,,-99.99,tws,2013-07-11 14:30:00,
2013-07-11 10:35:00,81.2,71.5,29.86,ESE,112,0.0,0.0,72,-99.99,,,-99.99,tws,2013-07-11 14:35:00,
2013-07-11 10:40:00,81.0,71.5,29.86,NNE,22,0.0,0.0,72,-99.99,,,-99.99,tws,2013-07-11 14:40:00,
2013-07-11 10:45:00,78.6,70.9,29.86,NW,315,1.0,1.0,76,-99.99,,,-99.99,tws,2013-07-11 14:45:00,
2013-07-11 10:50:00,78.7,70.3,29.86,NNW,337,0.1,0.1,75,-99.99,,,-99.99,tws,2013-07-11 14:50:00,
2013-07-11 10:55:00,78.5,71.0,29.86,West,270,0.7,0.7,77,-99.99,,,-99.99,tws,2013-07-11 14:55:00,
2013-07-11 11:00:00,79.1,69.7,29.86,West,270,0.8,0.8,72,-99.99,,,-99.99,tws,2013-07-11 15:00:00,
2013-07-11 11:05:00,81.0,70.2,29.86,SSW,202,0.1,0.1,69,-99.99,,,-99.99,tws,2013-07-11 15:05:00,
2013-07-11 11:10:00,80.7,70.6,29.85,West,270,3.3,3.3,70,-99.99,,,-99.99,tws,2013-07-11 15:10:00,
2013-07-11 11:15:00,79.3,70.1,29.85,NW,315,0.0,0.0,73,-99.99,,,-99.99,tws,2013-07-11 15:15:00,
2013-07-11 11:21:00,82.2,71.3,29.86,SE,135,0.0,0.0,69,-99.99,,,-99.99,tws,2013-07-11 15:21:00,
2013-07-11 11:27:00,84.1,72.5,29.86,SSE,157,0.5,0.5,67,-99.99,,,-99.99,tws,2013-07-11 15:27:00,
2013-07-11 11:32:00,80.6,69.6,29.86,West,270,0.0,0.0,68,-99.99,,,-99.99,tws,2013-07-11 15:32:00,
2013-07-11 11:37:00,79.4,68.9,29.86,WSW,247,3.0,3.0,69,-99.99,,,-99.99,tws,2013-07-11 15:37:00,
2013-07-11 11:42:00,80.1,70.4,29.86,West,270,0.7,0.7,71,-99.99,,,-99.99,tws,2013-07-11 15:42:00,
2013-07-11 11:47:00,81.3,70.6,29.86,South,180,0.0,0.0,69,-99.99,,,-99.99,tws,2013-07-11 15:47:00,
2013-07-11 11:52:00,83.6,73.0,29.86,East,90,3.0,3.0,70,-99.99,,,-99.99,tws,2013-07-11 15:52:00,
2013-07-11 11:57:00,83.8,72.9,29.86,NNE,22,0.6,0.6,69,-99.99,,,-99.99,tws,2013-07-11 15:57:00,
2013-07-11 12:03:00,83.2,72.2,29.85,SSE,157,2.9,2.9,68,-99.99,,,-99.99,tws,2013-07-11 16:03:00,
2013-07-11 12:08:00,81.4,71.6,29.86,ENE,67,3.9,3.9,71,-99.99,,,-99.99,tws,2013-07-11 16:08:00,
2013-07-11 12:13:00,81.6,73.1,29.86,ENE,67,3.7,3.7,75,-99.99,,,-99.99,tws,2013-07-11 16:13:00,
2013-07-11 12:18:00,-999.8,-99.9,29.85,ESE,112,0.0,0.0,73,-99.99,,,-99.99,tws,2013-07-11 16:18:00,
2013-07-11 12:23:00,81.6,71.6,29.86,SSE,157,0.0,0.0,71,-99.99,,,-99.99,tws,2013-07-11 16:23:00,
2013-07-11 12:28:00,80.9,71.0,29.85,ESE,112,0.0,0.0,71,-99.99,,,-99.99,tws,2013-07-11 16:28:00,
2013-07-11 12:33:00,82.7,71.9,29.85,South,180,0.0,0.0,69,-99.99,,,-99.99,tws,2013-07-11 16:33:00,
2013-07-11 12:38:00,82.1,71.7,29.86,SE,135,1.0,1.0,70,-99.99,,,-99.99,tws,2013-07-11 16:38:00,
2013-07-11 12:43:00,85.4,72.1,29.85,South,180,0.0,0.0,64,-99.99,,,-99.99,tws,2013-07-11 16:43:00,
2013-07-11 12:48:00,86.5,72.7,29.85,SE,135,0.3,0.3,63,-99.99,,,-99.99,tws,2013-07-11 16:48:00,
2013-07-11 12:53:00,83.3,71.4,29.85,WNW,292,0.0,0.0,66,-99.99,,,-99.99,tws,2013-07-11 16:53:00,
2013-07-11 12:58:00,85.1,73.5,29.85,ESE,112,7.6,7.6,67,-99.99,,,-99.99,tws,2013-07-11 16:58:00,
2013-07-11 13:04:00,83.9,72.3,29.85,East,90,1.8,1.8,67,-99.99,,,-99.99,tws,2013-07-11 17:04:00,
2013-07-11 13:09:00,87.2,75.0,29.84,East,90,5.9,5.9,66,-99.99,,,-99.99,tws,2013-07-11 17:09:00,
2013-07-11 13:14:00,83.4,73.0,29.85,ENE,67,2.5,2.5,70,-99.99,,,-99.99,tws,2013-07-11 17:14:00,
2013-07-11 13:19:00,81.4,71.4,29.85,NNE,22,7.6,7.6,71,-99.99,,,-99.99,tws,2013-07-11 17:19:00,
2013-07-11 13:26:00,79.4,71.0,29.85,ENE,67,5.0,5.0,75,-99.99,,,-99.99,tws,2013-07-11 17:26:00,
2013-07-11 13:31:00,78.6,70.6,29.85,NNE,22,11.0,11.0,76,-99.99,,,-99.99,tws,2013-07-11 17:31:00,
2013-07-11 13:37:00,79.3,71.6,29.85,NE,45,5.2,5.2,76,-99.99,,,-99.99,tws,2013-07-11 17:37:00,
2013-07-11 13:42:00,78.2,69.4,29.86,East,90,9.3,9.3,74,-99.99,,,-99.99,tws,2013-07-11 17:42:00,
2013-07-11 13:47:00,78.8,69.6,29.86,East,90,8.0,8.0,72,-99.99,,,-99.99,tws,2013-07-11 17:47:00,
2013-07-11 13:52:00,83.1,71.4,29.86,NE,45,12.6,12.6,67,-99.99,,,-99.99,tws,2013-07-11 17:52:00,
2013-07-11 13:57:00,83.0,71.1,29.85,ENE,67,3.9,3.9,66,-99.99,,,-99.99,tws,2013-07-11 17:57:00,
2013-07-11 14:02:00,85.0,72.1,29.85,NE,45,10.7,10.7,64,-99.99,,,-99.99,tws,2013-07-11 18:02:00,
2013-07-11 14:07:00,82.5,70.1,29.86,NNE,22,7.5,7.5,65,-99.99,,,-99.99,tws,2013-07-11 18:07:00,
2013-07-11 14:14:00,86.6,72.7,29.86,East,90,13.2,13.2,62,-99.99,,,-99.99,tws,2013-07-11 18:14:00,
2013-07-11 14:19:00,85.7,70.7,29.86,NE,45,14.4,14.4,60,-99.99,,,-99.99,tws,2013-07-11 18:19:00,
2013-07-11 14:24:00,87.2,72.6,29.86,ENE,67,4.3,4.3,61,-99.99,,,-99.99,tws,2013-07-11 18:24:00,
2013-07-11 14:29:00,87.5,71.8,29.86,NE,45,7.5,7.5,59,-99.99,,,-99.99,tws,2013-07-11 18:29:00,
2013-07-11 14:34:00,86.3,70.2,29.86,NNE,22,8.7,8.7,58,-99.99,,,-99.99,tws,2013-07-11 18:34:00,
2013-07-11 14:39:00,89.2,73.0,29.85,NNE,22,5.5,5.5,58,-99.99,,,-99.99,tws,2013-07-11 18:39:00,
2013-07-11 14:44:00,88.2,71.7,29.85,North,0,13.1,13.1,57,-99.99,,,-99.99,tws,2013-07-11 18:44:00,
2013-07-11 14:50:00,87.5,73.4,29.85,NNW,337,2.9,2.9,62,-99.99,,,-99.99,tws,2013-07-11 18:50:00,
2013-07-11 14:55:00,87.4,71.5,29.85,ENE,67,11.6,11.6,58,-99.99,,,-99.99,tws,2013-07-11 18:55:00,
2013-07-11 15:01:00,88.5,72.5,29.86,NE,45,9.4,9.4,58,-99.99,,,-99.99,tws,2013-07-11 19:01:00,
2013-07-11 15:06:00,84.7,69.3,29.86,North,360,6.6,6.6,59,-99.99,,,-99.99,tws,2013-07-11 19:06:00,
2013-07-11 15:11:00,87.4,71.3,29.86,ENE,67,11.7,11.7,58,-99.99,,,-99.99,tws,2013-07-11 19:11:00,
2013-07-11 15:16:00,87.2,70.0,29.85,NE,45,7.3,7.3,56,-99.99,,,-99.99,tws,2013-07-11 19:16:00,
2013-07-11 15:21:00,89.3,72.9,29.86,ENE,67,1.6,1.6,57,-99.99,,,-99.99,tws,2013-07-11 19:21:00,
2013-07-11 15:26:00,89.6,72.6,29.86,North,360,6.7,6.7,56,-99.99,,,-99.99,tws,2013-07-11 19:26:00,
2013-07-11 15:31:00,87.4,70.8,29.86,ESE,112,13.6,13.6,57,-99.99,,,-99.99,tws,2013-07-11 19:31:00,
2013-07-11 15:36:00,85.5,70.2,29.86,NE,45,8.2,8.2,59,-99.99,,,-99.99,tws,2013-07-11 19:36:00,
2013-07-11 15:41:00,86.3,68.9,29.86,ENE,67,10.2,10.2,55,-99.99,,,-99.99,tws,2013-07-11 19:41:00,
2013-07-11 15:46:00,84.6,70.1,29.86,ESE,112,7.7,7.7,61,-99.99,,,-99.99,tws,2013-07-11 19:46:00,
2013-07-11 15:51:00,84.5,68.5,29.86,NE,45,11.0,11.0,58,-99.99,,,-99.99,tws,2013-07-11 19:51:00,
2013-07-11 15:57:00,82.2,66.8,29.86,East,90,12.0,12.0,59,-99.99,,,-99.99,tws,2013-07-11 19:57:00,
2013-07-11 16:02:00,83.7,67.9,29.86,NNE,22,6.4,6.4,58,-99.99,,,-99.99,tws,2013-07-11 20:02:00,
2013-07-11 16:07:00,82.8,67.1,29.86,NNE,22,5.6,5.6,58,-99.99,,,-99.99,tws,2013-07-11 20:07:00,
2013-07-11 16:12:00,83.0,67.6,29.86,SE,135,8.8,8.8,59,-99.99,,,-99.99,tws,2013-07-11 20:12:00,
2013-07-11 16:18:00,82.3,66.3,29.86,NNW,337,11.3,11.3,57,-99.99,,,-99.99,tws,2013-07-11 20:18:00,
2013-07-11 16:23:00,81.6,66.5,29.86,NNE,22,8.4,8.4,59,-99.99,,,-99.99,tws,2013-07-11 20:23:00,
2013-07-11 16:28:00,83.9,66.7,29.86,North,360,4.1,4.1,55,-99.99,,,-99.99,tws,2013-07-11 20:28:00,
2013-07-11 16:33:00,83.9,66.6,-99.98,East,90,3.1,3.1,55,-99.99,,,-99.99,tws,2013-07-11 20:33:00,
2013-07-11 16:38:00,83.6,68.1,29.86,NNE,22,8.0,8.0,59,-99.99,,,-99.99,tws,2013-07-11 20:38:00,
2013-07-11 16:43:00,83.2,67.8,29.86,North,0,6.5,6.5,59,-99.99,,,-99.99,tws,2013-07-11 20:43:00,
2013-07-11 16:48:00,81.4,66.1,29.86,NE,45,9.7,9.7,59,-99.99,,,-99.99,tws,2013-07-11 20:48:00,
2013-07-11 16:53:00,81.2,66.3,29.86,ESE,112,0.9,0.9,60,-99.99,,,-99.99,tws,2013-07-11 20:53:00,
2013-07-11 16:58:00,80.6,66.0,29.86,NNE,22,5.9,5.9,60,-99.99,,,-99.99,tws,2013-07-11 20:58:00,
2013-07-11 17:03:00,82.5,66.1,29.86,NNE,22,1.5,1.5,57,-99.99,,,-99.99,tws,2013-07-11 21:03:00,
2013-07-11 17:08:00,83.3,66.6,29.86,North,0,3.1,3.1,56,-99.99,,,-99.99,tws,2013-07-11 21:08:00,
2013-07-11 17:13:00,81.0,65.2,29.86,North,360,3.8,3.8,58,-99.99,,,-99.99,tws,2013-07-11 21:13:00,
2013-07-11 17:18:00,82.0,65.6,29.86,NNW,337,2.2,2.2,57,-99.99,,,-99.99,tws,2013-07-11 21:18:00,
2013-07-11 17:23:00,79.8,62.9,29.86,North,0,8.4,8.4,55,-99.99,,,-99.99,tws,2013-07-11 21:23:00,
2013-07-11 17:28:00,80.6,64.5,29.86,NE,45,6.1,6.1,57,-99.99,,,-99.99,tws,2013-07-11 21:28:00,
2013-07-11 17:33:00,80.0,63.1,29.86,NE,45,3.4,3.4,55,-99.99,,,-99.99,tws,2013-07-11 21:33:00,
2013-07-11 17:38:00,79.4,63.4,29.86,NNE,22,2.7,2.7,57,-99.99,,,-99.99,tws,2013-07-11 21:38:00,
2013-07-11 17:43:00,79.3,62.9,29.86,North,360,7.5,7.5,56,-99.99,,,-99.99,tws,2013-07-11 21:43:00,
2013-07-11 17:48:00,79.5,62.7,29.86,North,360,4.5,4.5,55,-99.99,,,-99.99,tws,2013-07-11 21:48:00,
2013-07-11 17:55:00,83.7,63.7,29.86,NNW,337,2.9,2.9,50,-99.99,,,-99.99,tws,2013-07-11 21:55:00,
2013-07-11 18:00:00,84.3,66.4,29.86,North,0,1.9,1.9,54,-99.99,,,-99.99,tws,2013-07-11 22:00:00,
2013-07-11 18:05:00,81.2,64.5,29.86,SE,135,5.0,5.0,56,-99.99,,,-99.99,tws,2013-07-11 22:05:00,
2013-07-11 18:10:00,79.8,64.0,29.86,NW,315,4.0,4.0,57,-99.99,,,-99.99,tws,2013-07-11 22:10:00,
2013-07-11 18:15:00,82.1,64.3,29.87,SE,135,3.1,3.1,54,-99.99,,,-99.99,tws,2013-07-11 22:15:00,
2013-07-11 18:22:00,80.9,65.5,29.87,NNW,337,0.3,0.3,59,-99.99,,,-99.99,tws,2013-07-11 22:22:00,
2013-07-11 18:28:00,79.6,64.0,29.87,North,360,2.4,2.4,58,-99.99,,,-99.99,tws,2013-07-11 22:28:00,
2013-07-11 18:34:00,79.4,64.1,29.87,NNW,337,0.2,0.2,58,-99.99,,,-99.99,tws,2013-07-11 22:34:00,
2013-07-11 18:39:00,81.5,64.3,29.87,ENE,67,2.0,2.0,55,-99.99,,,-99.99,tws,2013-07-11 22:39:00,
2013-07-11 18:44:00,81.4,65.0,29.88,North,360,1.3,1.3,56,-99.99,,,-99.99,tws,2013-07-11 22:44:00,
2013-07-11 18:49:00,80.1,64.2,29.89,NW,315,0.9,0.9,57,-99.99,,,-99.99,tws,2013-07-11 22:49:00,
2013-07-11 18:54:00,80.1,64.6,29.89,NNW,337,1.1,1.1,58,-99.99,,,-99.99,tws,2013-07-11 22:54:00,
2013-07-11 18:59:00,79.1,64.5,29.89,NW,315,0.5,0.5,60,-99.99,,,-99.99,tws,2013-07-11 22:59:00,
2013-07-11 19:05:00,78.6,64.2,29.89,NNW,337,0.9,0.9,60,-99.99,,,-99.99,tws,2013-07-11 23:05:00,
2013-07-11 19:11:00,78.8,65.1,29.89,NNE,22,0.0,0.0,62,-99.99,,,-99.99,tws,2013-07-11 23:11:00,
2013-07-11 19:16:00,79.5,66.4,29.89,NE,45,0.0,0.0,63,-99.99,,,-99.99,tws,2013-07-11 23:16:00,
2013-07-11 19:21:00,77.9,66.8,29.89,NNW,337,0.0,0.0,68,-99.99,,,-99.99,tws,2013-07-11 23:21:00,
2013-07-11 19:26:00,78.2,66.0,29.89,NW,315,0.0,0.0,65,-99.99,,,-99.99,tws,2013-07-11 23:26:00,
2013-07-11 19:31:00,82.5,68.3,29.89,NNW,337,0.0,0.0,61,-99.99,,,-99.99,tws,2013-07-11 23:31:00,
2013-07-11 19:36:00,81.3,69.2,29.90,SE,135,0.0,0.0,66,-99.99,,,-99.99,tws,2013-07-11 23:36:00,
2013-07-11 19:41:00,78.7,68.2,29.90,SE,135,0.0,0.0,69,-99.99,,,-99.99,tws,2013-07-11 23:41:00,
2013-07-11 19:46:00,78.3,67.5,29.90,SE,135,0.0,0.0,69,-99.99,,,-99.99,tws,2013-07-11 23:46:00,
2013-07-11 19:52:00,80.2,68.2,29.91,SE,135,0.0,0.0,66,-99.99,,,-99.99,tws,2013-07-11 23:52:00,
2013-07-11 19:59:00,80.2,68.5,29.91,SE,135,0.0,0.0,67,-99.99,,,-99.99,tws,2013-07-11 23:59:00,
2013-07-11 20:04:00,77.1,67.6,29.91,SE,135,0.0,0.0,72,-99.99,,,-99.99,tws,2013-07-12 00:04:00,
2013-07-11 20:10:00,77.4,67.9,29.91,SE,135,0.0,0.0,72,-99.99,,,-99.99,tws,2013-07-12 00:10:00,
2013-07-11 20:15:00,73.9,66.6,29.91,SE,135,0.0,0.0,77,-99.99,,,-99.99,tws,2013-07-12 00:15:00,
2013-07-11 20:20:00,75.0,67.2,29.91,NNE,22,0.0,0.0,76,-99.99,,,-99.99,tws,2013-07-12 00:20:00,
2013-07-11 20:25:00,74.3,68.1,29.91,NE,45,0.0,0.0,80,-99.99,,,-99.99,tws,2013-07-12 00:25:00,
2013-07-11 20:30:00,73.5,67.2,29.91,NE,45,0.0,0.0,80,-99.99,,,-99.99,tws,2013-07-12 00:30:00,
2013-07-11 20:36:00,73.2,67.3,29.91,North,0,0.0,0.0,81,-99.99,,,-99.99,tws,2013-07-12 00:36:00,
2013-07-11 20:41:00,73.2,67.1,29.91,NE,45,0.0,0.0,80,-99.99,,,-99.99,tws,2013-07-12 00:41:00,
2013-07-11 20:46:00,73.0,66.6,29.91,WNW,292,0.0,0.0,80,-99.99,,,-99.99,tws,2013-07-12 00:46:00,
2013-07-11 20:52:00,72.8,67.0,29.91,North,0,0.0,0.0,81,-99.99,,,-99.99,tws,2013-07-12 00:52:00,
2013-07-11 20:58:00,71.4,66.4,29.91,North,360,0.0,0.0,84,-99.99,,,-99.99,tws,2013-07-12 00:58:00,
2013-07-11 21:03:00,71.0,66.6,29.91,East,90,0.0,0.0,85,-99.99,,,-99.99,tws,2013-07-12 01:03:00,
2013-07-11 21:08:00,72.1,67.1,29.91,North,0,0.0,0.0,84,-99.99,,,-99.99,tws,2013-07-12 01:08:00,
2013-07-11 21:13:00,71.5,66.6,29.91,NE,45,0.0,0.0,84,-99.99,,,-99.99,tws,2013-07-12 01:13:00,
2013-07-11 21:18:00,71.3,66.4,29.92,NNE,22,0.0,0.0,84,-99.99,,,-99.99,tws,2013-07-12 01:18:00,
2013-07-11 21:23:00,71.1,66.2,29.92,NNE,22,0.0,0.0,84,-99.99,,,-99.99,tws,2013-07-12 01:23:00,
2013-07-11 21:28:00,71.0,65.7,29.93,NNE,22,0.0,0.0,83,-99.99,,,-99.99,tws,2013-07-12 01:28:00,
2013-07-11 21:33:00,70.8,65.2,29.93,NNE,22,0.0,0.0,82,-99.99,,,-99.99,tws,2013-07-12 01:33:00,
2013-07-11 21:38:00,69.9,65.1,29.93,East,90,0.0,0.0,84,-99.99,,,-99.99,tws,2013-07-12 01:38:00,
2013-07-11 21:43:00,69.2,65.0,29.93,NE,45,0.0,0.0,86,-99.99,,,-99.99,tws,2013-07-12 01:43:00,
2013-07-11 21:50:00,69.5,64.9,29.93,NNE,22,0.0,0.0,85,-99.99,,,-99.99,tws,2013-07-12 01:50:00,
2013-07-11 21:55:00,68.7,64.7,29.93,North,360,0.2,0.2,87,-99.99,,,-99.99,tws,2013-07-12 01:55:00,
2013-07-11 22:00:00,69.4,64.2,29.93,North,360,0.0,0.0,83,-99.99,,,-99.99,tws,2013-07-12 02:00:00,
2013-07-11 22:05:00,69.3,64.0,29.94,ENE,67,0.0,0.0,83,-99.99,,,-99.99,tws,2013-07-12 02:05:00,
2013-07-11 22:10:00,68.9,63.7,29.93,ENE,67,0.0,0.0,83,-99.99,,,-99.99,tws,2013-07-12 02:10:00,
2013-07-11 22:15:00,69.3,63.4,29.94,North,0,1.6,1.6,81,-99.99,,,-99.99,tws,2013-07-12 02:15:00,
2013-07-11 22:20:00,69.6,63.5,29.94,NNE,22,2.6,2.6,80,-99.99,,,-99.99,tws,2013-07-12 02:20:00,
2013-07-11 22:25:00,69.7,63.1,29.94,ENE,67,0.5,0.5,79,-99.99,,,-99.99,tws,2013-07-12 02:25:00,
2013-07-11 22:30:00,69.9,63.4,29.94,NE,45,3.4,3.4,79,-99.99,,,-99.99,tws,2013-07-12 02:30:00,
2013-07-11 22:35:00,69.8,62.9,29.94,NE,45,3.9,3.9,78,-99.99,,,-99.99,tws,2013-07-12 02:35:00,
2013-07-11 22:40:00,69.9,62.7,29.94,North,360,2.6,2.6,77,-99.99,,,-99.99,tws,2013-07-12 02:40:00,
2013-07-11 22:45:00,70.1,62.8,29.95,North,360,3.3,3.3,77,-99.99,,,-99.99,tws,2013-07-12 02:45:00,
2013-07-11 22:50:00,69.9,62.9,29.94,NW,315,0.2,0.2,78,-99.99,,,-99.99,tws,2013-07-12 02:50:00,
2013-07-11 22:55:00,69.8,62.7,29.95,NE,45,2.7,2.7,77,-99.99,,,-99.99,tws,2013-07-12 02:55:00,
2013-07-11 23:00:00,69.6,62.8,29.94,East,90,0.0,0.0,78,-99.99,,,-99.99,tws,2013-07-12 03:00:00,
2013-07-11 23:05:00,69.0,62.4,29.94,North,360,2.6,2.6,79,-99.99,,,-99.99,tws,2013-07-12 03:05:00,
2013-07-11 23:10:00,69.2,62.6,29.95,NE,45,1.6,1.6,79,-99.99,,,-99.99,tws,2013-07-12 03:10:00,
2013-07-11 23:15:00,68.8,62.3,29.95,NNE,22,2.3,2.3,79,-99.99,,,-99.99,tws,2013-07-12 03:15:00,
2013-07-11 23:20:00,68.7,62.6,29.95,ENE,67,0.1,0.1,80,-99.99,,,-99.99,tws,2013-07-12 03:20:00,
2013-07-11 23:26:00,68.4,62.4,29.94,North,0,0.8,0.8,81,-99.99,,,-99.99,tws,2013-07-12 03:26:00,
2013-07-11 23:31:00,68.4,62.3,29.95,SE,135,1.3,1.3,80,-99.99,,,-99.99,tws,2013-07-12 03:31:00,
2013-07-11 23:36:00,68.6,62.1,29.95,ESE,112,0.8,0.8,79,-99.99,,,-99.99,tws,2013-07-12 03:36:00,
2013-07-11 23:41:00,68.7,61.8,29.94,WNW,292,2.6,2.6,78,-99.99,,,-99.99,tws,2013-07-12 03:41:00,
2013-07-11 23:46:00,68.8,61.5,29.94,West,270,6.5,6.5,77,-99.99,,,-99.99,tws,2013-07-12 03:46:00,
2013-07-11 23:51:00,68.9,61.4,29.94,NE,45,8.3,8.3,76,-99.99,,,-99.99,tws,2013-07-12 03:51:00,
2013-07-11 23:56:00,68.7,61.5,29.94,East,90,2.8,2.8,77,-99.99,,,-99.99,tws,2013-07-12 03:56:00,